createdAt,value
2019-06-02T00:00:26.541Z,46.94
2019-06-02T00:01:02.010Z,46.84
2019-06-02T00:01:58.546Z,46.75
2019-06-02T00:02:30.628Z,46.84
2019-06-02T00:03:05.689Z,46.94
2019-06-02T00:03:37.755Z,46.94
2019-06-02T00:04:09.842Z,46.84
2019-06-02T00:04:41.947Z,47.14
2019-06-02T00:05:14.045Z,46.84
2019-06-02T00:05:46.154Z,47.04
2019-06-02T00:06:18.207Z,47.04
2019-06-02T00:06:50.319Z,46.94
2019-06-02T00:07:22.411Z,47.04
2019-06-02T00:07:55.929Z,46.84
2019-06-02T00:08:28.866Z,47.04
2019-06-02T00:09:02.133Z,47.04
2019-06-02T00:09:35.118Z,46.84
2019-06-02T00:10:07.239Z,47.14
2019-06-02T00:10:39.784Z,46.84
2019-06-02T00:11:11.883Z,46.94
2019-06-02T00:11:43.988Z,46.84
2019-06-02T00:12:16.090Z,46.84
2019-06-02T00:12:48.134Z,46.94
2019-06-02T00:13:20.261Z,46.94
2019-06-02T00:13:52.359Z,46.75
2019-06-02T00:14:35.570Z,46.56
2019-06-02T00:15:10.937Z,47.04
2019-06-02T00:15:43.072Z,46.94
2019-06-02T00:16:15.162Z,46.75
2019-06-02T00:16:47.269Z,46.75
2019-06-02T00:17:19.391Z,46.84
2019-06-02T00:17:51.618Z,47.33
2019-06-02T00:18:24.913Z,46.84
2019-06-02T00:18:57.116Z,46.83
2019-06-02T00:19:29.608Z,46.84
2019-06-02T00:20:02.891Z,46.84
2019-06-02T00:20:35.713Z,46.84
2019-06-02T00:21:09.085Z,47.43
2019-06-02T00:21:41.197Z,47.14
2019-06-02T00:22:13.295Z,46.83
2019-06-02T00:22:45.400Z,46.75
2019-06-02T00:23:17.421Z,47.04
2019-06-02T00:23:49.528Z,47.33
2019-06-02T00:24:21.335Z,47.14
2019-06-02T00:24:53.451Z,47.14
2019-06-02T00:25:25.700Z,47.24
2019-06-02T00:25:58.881Z,47.04
2019-06-02T00:26:32.188Z,47.33
2019-06-02T00:27:05.577Z,47.31
2019-06-02T00:27:37.621Z,47.24
2019-06-02T00:28:09.795Z,47.14
2019-06-02T00:28:42.360Z,47.31
2019-06-02T00:29:14.450Z,46.94
2019-06-02T00:29:46.554Z,47.24
2019-06-02T00:30:19.014Z,47.14
2019-06-02T00:30:51.336Z,47.24
2019-06-02T00:31:23.462Z,47.21
2019-06-02T00:31:55.550Z,47.11
2019-06-02T00:32:28.417Z,47.21
2019-06-02T00:33:01.730Z,47.21
2019-06-02T00:33:34.602Z,47.11
2019-06-02T00:34:08.002Z,47.11
2019-06-02T00:34:40.142Z,47.11
2019-06-02T00:35:12.276Z,47.21
2019-06-02T00:35:44.374Z,47.11
2019-06-02T00:36:16.505Z,47.21
2019-06-02T00:36:48.555Z,47.21
2019-06-02T00:37:20.691Z,47.21
2019-06-02T00:37:52.795Z,47.21
2019-06-02T00:38:26.218Z,47.21
2019-06-02T00:38:59.674Z,47.11
2019-06-02T00:39:31.989Z,47.11
2019-06-02T00:40:05.216Z,47.02
2019-06-02T00:40:37.276Z,47.21
2019-06-02T00:41:09.366Z,47.21
2019-06-02T00:41:41.465Z,47.11
2019-06-02T00:42:13.563Z,47.11
2019-06-02T00:42:45.689Z,47.21
2019-06-02T00:43:17.739Z,47.31
2019-06-02T00:43:49.872Z,47.21
2019-06-02T00:44:21.972Z,47.11
2019-06-02T00:44:57.676Z,47.21
2019-06-02T00:45:30.707Z,47.31
2019-06-02T00:46:03.145Z,47.21
2019-06-02T00:46:35.636Z,47.31
2019-06-02T00:47:09.084Z,47.21
2019-06-02T00:47:41.188Z,47.21
2019-06-02T00:48:13.284Z,47.21
2019-06-02T00:48:45.378Z,47.21
2019-06-02T00:49:17.419Z,47.21
2019-06-02T00:49:49.515Z,47.31
2019-06-02T00:50:21.612Z,47.21
2019-06-02T00:50:53.713Z,47.31
2019-06-02T00:51:25.814Z,47.11
2019-06-02T00:52:00.733Z,47.5
2019-06-02T00:52:34.122Z,47.41
2019-06-02T00:53:08.725Z,47.11
2019-06-02T00:53:40.816Z,47.31
2019-06-02T00:54:12.925Z,47.41
2019-06-02T00:54:45.021Z,47.31
2019-06-02T00:55:17.107Z,47.11
2019-06-02T00:55:49.165Z,47.21
2019-06-02T00:56:21.304Z,47.41
2019-06-02T00:56:53.428Z,47.31
2019-06-02T00:57:25.531Z,47.41
2019-06-02T00:57:58.981Z,47.31
2019-06-02T00:58:34.308Z,47.21
2019-06-02T00:59:08.734Z,47.21
2019-06-02T00:59:40.822Z,47.41
2019-06-02T01:00:12.925Z,47.11
2019-06-02T01:00:45.037Z,47.31
2019-06-02T01:01:17.147Z,47.31
2019-06-02T01:01:49.286Z,47.11
2019-06-02T01:02:21.385Z,47.31
2019-06-02T01:02:53.494Z,47.41
2019-06-02T01:03:25.598Z,47.11
2019-06-02T01:03:59.097Z,47.41
2019-06-02T01:04:32.510Z,47.21
2019-06-02T01:05:05.910Z,47.11
2019-06-02T01:05:39.050Z,47.41
2019-06-02T01:06:11.212Z,47.09
2019-06-02T01:06:43.338Z,47.5
2019-06-02T01:07:15.433Z,47.5
2019-06-02T01:07:47.467Z,47.41
2019-06-02T01:08:19.600Z,47.31
2019-06-02T01:08:51.727Z,47.41
2019-06-02T01:09:23.821Z,47.28
2019-06-02T01:09:55.983Z,47.48
2019-06-02T01:10:28.617Z,47.19
2019-06-02T01:11:02.137Z,47.38
2019-06-02T01:11:34.922Z,47.41
2019-06-02T01:12:08.313Z,47
2019-06-02T01:12:40.428Z,47.5
2019-06-02T01:13:12.534Z,47.5
2019-06-02T01:13:44.630Z,47.48
2019-06-02T01:14:16.721Z,47.48
2019-06-02T01:15:04.872Z,47.28
2019-06-02T01:15:41.360Z,47.48
2019-06-02T01:16:13.517Z,47.38
2019-06-02T01:16:45.689Z,47.41
2019-06-02T01:17:17.796Z,47.38
2019-06-02T01:17:49.991Z,47.48
2019-06-02T01:18:22.100Z,47.58
2019-06-02T01:18:54.231Z,47.38
2019-06-02T01:19:26.335Z,47.38
2019-06-02T01:19:58.379Z,47.41
2019-06-02T01:20:31.496Z,47.58
2019-06-02T01:21:04.842Z,47.38
2019-06-02T01:21:37.828Z,47.28
2019-06-02T01:22:11.208Z,47.38
2019-06-02T01:22:43.326Z,47.48
2019-06-02T01:23:15.424Z,47.38
2019-06-02T01:23:47.463Z,47
2019-06-02T01:24:19.569Z,47.48
2019-06-02T01:24:51.672Z,47.48
2019-06-02T01:25:23.762Z,47.48
2019-06-02T01:25:55.874Z,47.38
2019-06-02T01:26:29.171Z,47.48
2019-06-02T01:27:01.390Z,47.48
2019-06-02T01:27:33.727Z,47.58
2019-06-02T01:28:07.083Z,47.58
2019-06-02T01:28:40.304Z,47.38
2019-06-02T01:29:12.458Z,47.48
2019-06-02T01:29:44.590Z,47.38
2019-06-02T01:30:16.686Z,47.48
2019-06-02T01:30:48.758Z,47.38
2019-06-02T01:31:20.899Z,47.28
2019-06-02T01:31:52.985Z,47.67
2019-06-02T01:32:25.075Z,47.48
2019-06-02T01:32:57.179Z,47.58
2019-06-02T01:33:29.998Z,47.48
2019-06-02T01:34:03.370Z,47.48
2019-06-02T01:34:36.053Z,47.48
2019-06-02T01:35:09.426Z,47.58
2019-06-02T01:35:41.530Z,47.58
2019-06-02T01:36:13.632Z,47.58
2019-06-02T01:36:45.745Z,47.58
2019-06-02T01:37:17.821Z,47.48
2019-06-02T01:37:49.953Z,47.58
2019-06-02T01:38:22.061Z,47.28
2019-06-02T01:38:54.151Z,47.58
2019-06-02T01:39:26.269Z,47.58
2019-06-02T01:39:58.387Z,47.48
2019-06-02T01:40:32.225Z,47.48
2019-06-02T01:41:04.461Z,47.38
2019-06-02T01:41:38.386Z,47.38
2019-06-02T01:42:11.783Z,47.48
2019-06-02T01:42:43.889Z,47.58
2019-06-02T01:43:15.988Z,47.38
2019-06-02T01:43:48.051Z,47.48
2019-06-02T01:44:20.230Z,47.58
2019-06-02T01:44:52.322Z,47.38
2019-06-02T01:45:34.856Z,47.38
2019-06-02T01:46:12.932Z,47.58
2019-06-02T01:46:45.031Z,47.67
2019-06-02T01:47:17.141Z,47.48
2019-06-02T01:47:49.180Z,47.48
2019-06-02T01:48:21.306Z,47.67
2019-06-02T01:48:53.418Z,47.58
2019-06-02T01:49:25.608Z,47.67
2019-06-02T01:49:57.694Z,47.48
2019-06-02T01:50:30.990Z,47.55
2019-06-02T01:51:04.201Z,47.67
2019-06-02T01:51:37.408Z,47.48
2019-06-02T01:52:10.796Z,47.55
2019-06-02T01:52:42.898Z,47.45
2019-06-02T01:53:15.001Z,47.55
2019-06-02T01:53:47.098Z,47.65
2019-06-02T01:54:19.138Z,47.26
2019-06-02T01:54:51.239Z,47.58
2019-06-02T01:55:23.336Z,47.48
2019-06-02T01:55:55.470Z,47.45
2019-06-02T01:56:27.516Z,47.48
2019-06-02T01:56:59.609Z,47.48
2019-06-02T01:57:33.069Z,47.48
2019-06-02T01:58:05.249Z,47.67
2019-06-02T01:58:37.884Z,47.45
2019-06-02T01:59:11.071Z,47.55
2019-06-02T01:59:43.177Z,47.36
2019-06-02T02:00:15.277Z,47.36
2019-06-02T02:00:47.331Z,47.65
2019-06-02T02:01:19.506Z,47.55
2019-06-02T02:01:51.606Z,47.45
2019-06-02T02:02:23.707Z,47.55
2019-06-02T02:02:55.822Z,47.58
2019-06-02T02:03:27.861Z,47.55
2019-06-02T02:03:59.949Z,47.65
2019-06-02T02:04:33.443Z,47.65
2019-06-02T02:05:05.638Z,47.36
2019-06-02T02:05:39.824Z,47.45
2019-06-02T02:06:14.033Z,47.65
2019-06-02T02:06:46.350Z,47.65
2019-06-02T02:07:18.404Z,47.55
2019-06-02T02:07:50.501Z,47.65
2019-06-02T02:08:22.622Z,47.55
2019-06-02T02:08:54.720Z,47.65
2019-06-02T02:09:26.851Z,47.45
2019-06-02T02:09:58.943Z,47.55
2019-06-02T02:10:32.127Z,47.45
2019-06-02T02:11:05.468Z,47.65
2019-06-02T02:11:40.038Z,47.74
2019-06-02T02:12:12.236Z,47.55
2019-06-02T02:12:44.366Z,47.65
2019-06-02T02:13:16.463Z,47.55
2019-06-02T02:13:48.503Z,47.55
2019-06-02T02:14:20.609Z,47.55
2019-06-02T02:14:52.753Z,47.74
2019-06-02T02:15:24.855Z,47.65
2019-06-02T02:16:02.408Z,47.65
2019-06-02T02:16:35.696Z,47.55
2019-06-02T02:17:08.798Z,47.74
2019-06-02T02:17:43.149Z,47.84
2019-06-02T02:18:15.256Z,47.65
2019-06-02T02:18:47.297Z,47.94
2019-06-02T02:19:19.405Z,47.65
2019-06-02T02:19:51.505Z,47.65
2019-06-02T02:20:23.637Z,47.84
2019-06-02T02:20:55.756Z,47.74
2019-06-02T02:21:27.798Z,47.65
2019-06-02T02:21:59.908Z,47.84
2019-06-02T02:22:32.034Z,47.74
2019-06-02T02:23:05.909Z,47.84
2019-06-02T02:23:41.065Z,47.84
2019-06-02T02:24:14.657Z,47.74
2019-06-02T02:24:46.801Z,47.74
2019-06-02T02:25:18.865Z,47.74
2019-06-02T02:25:50.977Z,47.84
2019-06-02T02:26:23.082Z,47.74
2019-06-02T02:26:55.178Z,47.74
2019-06-02T02:27:27.229Z,47.74
2019-06-02T02:27:59.327Z,47.65
2019-06-02T02:28:31.473Z,47.74
2019-06-02T02:29:03.590Z,47.74
2019-06-02T02:29:36.955Z,47.65
2019-06-02T02:30:10.404Z,47.84
2019-06-02T02:30:45.453Z,47.84
2019-06-02T02:31:19.459Z,47.65
2019-06-02T02:31:51.575Z,47.63
2019-06-02T02:32:23.712Z,47.65
2019-06-02T02:32:55.842Z,47.74
2019-06-02T02:33:27.880Z,47.65
2019-06-02T02:34:00.052Z,47.65
2019-06-02T02:34:32.154Z,47.74
2019-06-02T02:35:04.317Z,47.55
2019-06-02T02:35:39.135Z,47.65
2019-06-02T02:36:14.876Z,47.65
2019-06-02T02:36:46.981Z,47.55
2019-06-02T02:37:19.033Z,47.74
2019-06-02T02:37:51.143Z,47.63
2019-06-02T02:38:23.261Z,47.55
2019-06-02T02:38:55.373Z,47.63
2019-06-02T02:39:27.427Z,47.72
2019-06-02T02:39:59.537Z,47.74
2019-06-02T02:40:31.653Z,47.65
2019-06-02T02:41:03.790Z,47.65
2019-06-02T02:41:38.911Z,47.65
2019-06-02T02:42:14.510Z,47.65
2019-06-02T02:42:49.287Z,47.65
2019-06-02T02:43:21.365Z,47.65
2019-06-02T02:43:53.480Z,47.53
2019-06-02T02:44:25.599Z,47.74
2019-06-02T02:44:57.671Z,47.65
2019-06-02T02:45:29.775Z,47.72
2019-06-02T02:46:14.028Z,47.53
2019-06-02T02:46:47.734Z,47.72
2019-06-02T02:47:19.805Z,47.72
2019-06-02T02:47:51.909Z,47.72
2019-06-02T02:48:24.015Z,47.72
2019-06-02T02:48:56.128Z,47.72
2019-06-02T02:49:28.200Z,47.43
2019-06-02T02:50:00.357Z,47.63
2019-06-02T02:50:32.594Z,47.72
2019-06-02T02:51:04.720Z,47.91
2019-06-02T02:51:39.425Z,47.81
2019-06-02T02:52:15.122Z,47.72
2019-06-02T02:52:47.596Z,47.63
2019-06-02T02:53:19.725Z,47.72
2019-06-02T02:53:51.855Z,47.72
2019-06-02T02:54:23.978Z,47.81
2019-06-02T02:54:56.100Z,47.53
2019-06-02T02:55:28.188Z,47.91
2019-06-02T02:56:00.284Z,47.63
2019-06-02T02:56:32.391Z,47.81
2019-06-02T02:57:04.518Z,47.81
2019-06-02T02:57:40.732Z,47.81
2019-06-02T02:58:19.346Z,47.72
2019-06-02T02:58:51.469Z,47.81
2019-06-02T02:59:23.622Z,47.63
2019-06-02T02:59:55.734Z,47.81
2019-06-02T03:00:27.785Z,47.91
2019-06-02T03:00:59.894Z,47.72
2019-06-02T03:01:32.014Z,47.72
2019-06-02T03:02:04.129Z,47.91
2019-06-02T03:02:39.822Z,47.81
2019-06-02T03:03:16.271Z,47.91
2019-06-02T03:03:48.323Z,47.81
2019-06-02T03:04:20.442Z,47.91
2019-06-02T03:04:52.553Z,47.91
2019-06-02T03:05:25.338Z,47.81
2019-06-02T03:05:57.415Z,47.81
2019-06-02T03:06:29.691Z,47.81
2019-06-02T03:07:01.816Z,47.81
2019-06-02T03:07:35.648Z,48.01
2019-06-02T03:08:11.512Z,47.91
2019-06-02T03:08:47.264Z,47.72
2019-06-02T03:09:19.389Z,47.91
2019-06-02T03:09:51.520Z,47.91
2019-06-02T03:10:23.622Z,47.91
2019-06-02T03:10:55.745Z,47.81
2019-06-02T03:11:27.790Z,47.81
2019-06-02T03:11:59.902Z,47.81
2019-06-02T03:12:31.999Z,47.91
2019-06-02T03:13:04.114Z,47.81
2019-06-02T03:13:37.220Z,48.01
2019-06-02T03:14:10.727Z,47.81
2019-06-02T03:14:44.240Z,47.72
2019-06-02T03:15:17.970Z,47.81
2019-06-02T03:15:50.077Z,47.81
2019-06-02T03:16:33.920Z,48.01
2019-06-02T03:17:11.561Z,47.81
2019-06-02T03:17:48.333Z,47.91
2019-06-02T03:18:20.608Z,47.91
2019-06-02T03:18:52.721Z,47.91
2019-06-02T03:19:24.836Z,47.91
2019-06-02T03:19:56.943Z,47.91
2019-06-02T03:20:28.996Z,47.81
2019-06-02T03:21:01.082Z,47.91
2019-06-02T03:21:33.181Z,47.81
2019-06-02T03:22:05.300Z,47.81
2019-06-02T03:22:43.199Z,47.81
2019-06-02T03:23:20.542Z,47.91
2019-06-02T03:23:52.670Z,47.81
2019-06-02T03:24:24.782Z,47.91
2019-06-02T03:24:56.897Z,48.01
2019-06-02T03:25:28.949Z,47.91
2019-06-02T03:26:01.059Z,47.91
2019-06-02T03:26:33.160Z,47.91
2019-06-02T03:27:05.266Z,47.91
2019-06-02T03:27:41.623Z,47.81
2019-06-02T03:28:19.766Z,47.81
2019-06-02T03:28:51.891Z,47.91
2019-06-02T03:29:24.001Z,47.91
2019-06-02T03:29:56.120Z,47.91
2019-06-02T03:30:28.221Z,47.91
2019-06-02T03:31:00.985Z,47.91
2019-06-02T03:31:33.122Z,47.81
2019-06-02T03:32:05.245Z,47.91
2019-06-02T03:32:54.166Z,47.91
2019-06-02T03:33:33.871Z,47.91
2019-06-02T03:34:05.991Z,47.91
2019-06-02T03:34:49.316Z,47.91
2019-06-02T03:35:30.612Z,47.81
2019-06-02T03:36:02.771Z,47.89
2019-06-02T03:36:34.914Z,47.91
2019-06-02T03:37:17.084Z,47.91
2019-06-02T03:37:49.777Z,48.01
2019-06-02T03:38:21.893Z,47.89
2019-06-02T03:38:54.037Z,48.01
2019-06-02T03:39:26.187Z,47.91
2019-06-02T03:39:58.261Z,47.91
2019-06-02T03:40:30.384Z,48.01
2019-06-02T03:41:02.488Z,48.01
2019-06-02T03:41:34.628Z,47.81
2019-06-02T03:42:06.744Z,48.01
2019-06-02T03:42:43.270Z,48.08
2019-06-02T03:43:21.137Z,47.91
2019-06-02T03:43:53.236Z,47.91
2019-06-02T03:44:25.412Z,47.91
2019-06-02T03:44:57.478Z,47.91
2019-06-02T03:45:29.570Z,47.91
2019-06-02T03:46:01.676Z,47.89
2019-06-02T03:47:06.774Z,48.11
2019-06-02T03:47:45.457Z,47.91
2019-06-02T03:48:21.772Z,47.91
2019-06-02T03:48:53.841Z,47.91
2019-06-02T03:49:25.943Z,47.91
2019-06-02T03:49:58.003Z,47.91
2019-06-02T03:50:30.118Z,47.91
2019-06-02T03:51:02.238Z,48.01
2019-06-02T03:51:34.357Z,47.91
2019-06-02T03:52:06.470Z,47.91
2019-06-02T03:52:43.996Z,47.89
2019-06-02T03:53:23.075Z,47.91
2019-06-02T03:53:55.183Z,47.91
2019-06-02T03:54:27.076Z,47.91
2019-06-02T03:54:59.135Z,48.01
2019-06-02T03:55:36.115Z,47.91
2019-06-02T03:56:11.890Z,48.11
2019-06-02T03:56:46.435Z,47.91
2019-06-02T03:57:20.481Z,47.99
2019-06-02T03:57:52.585Z,47.91
2019-06-02T03:58:24.696Z,48.01
2019-06-02T03:58:56.813Z,48.01
2019-06-02T03:59:28.854Z,47.91
2019-06-02T04:00:00.960Z,47.89
2019-06-02T04:00:33.120Z,47.89
2019-06-02T04:01:05.220Z,47.91
2019-06-02T04:01:40.211Z,47.91
2019-06-02T04:02:12.374Z,47.89
2019-06-02T04:02:48.856Z,47.89
2019-06-02T04:03:23.109Z,47.91
2019-06-02T04:03:55.229Z,47.81
2019-06-02T04:04:27.300Z,47.91
2019-06-02T04:04:59.401Z,48.01
2019-06-02T04:05:31.535Z,47.91
2019-06-02T04:06:03.667Z,47.91
2019-06-02T04:06:35.791Z,48.01
2019-06-02T04:07:07.848Z,47.91
2019-06-02T04:07:43.391Z,48.01
2019-06-02T04:08:21.306Z,47.91
2019-06-02T04:08:53.426Z,47.91
2019-06-02T04:09:25.554Z,48.01
2019-06-02T04:09:57.598Z,47.91
2019-06-02T04:10:29.709Z,48.01
2019-06-02T04:11:01.524Z,47.81
2019-06-02T04:11:33.630Z,47.89
2019-06-02T04:12:06.466Z,47.99
2019-06-02T04:12:41.641Z,47.91
2019-06-02T04:13:15.641Z,48.01
2019-06-02T04:13:49.812Z,48.01
2019-06-02T04:14:22.282Z,48.01
2019-06-02T04:14:54.400Z,47.91
2019-06-02T04:15:26.527Z,48.01
2019-06-02T04:15:58.591Z,47.91
2019-06-02T04:16:30.691Z,48.01
2019-06-02T04:17:14.089Z,47.91
2019-06-02T04:17:51.041Z,48.01
2019-06-02T04:18:23.391Z,47.81
2019-06-02T04:18:55.504Z,47.89
2019-06-02T04:19:27.570Z,48.01
2019-06-02T04:19:59.703Z,47.91
2019-06-02T04:20:31.812Z,47.91
2019-06-02T04:21:03.929Z,48.01
2019-06-02T04:21:36.076Z,47.91
2019-06-02T04:22:08.130Z,48.11
2019-06-02T04:22:44.259Z,48.01
2019-06-02T04:23:22.397Z,47.91
2019-06-02T04:23:54.545Z,47.91
2019-06-02T04:24:26.682Z,48.01
2019-06-02T04:24:58.732Z,48.01
2019-06-02T04:25:30.852Z,47.91
2019-06-02T04:26:02.673Z,47.91
2019-06-02T04:26:34.786Z,47.81
2019-06-02T04:27:06.893Z,48.01
2019-06-02T04:27:42.230Z,47.81
2019-06-02T04:28:16.180Z,47.99
2019-06-02T04:28:50.329Z,47.91
2019-06-02T04:29:22.605Z,47.99
2019-06-02T04:29:54.740Z,47.91
2019-06-02T04:30:26.850Z,47.81
2019-06-02T04:30:58.904Z,47.91
2019-06-02T04:31:31.006Z,47.91
2019-06-02T04:32:03.143Z,47.81
2019-06-02T04:32:35.254Z,47.81
2019-06-02T04:33:07.328Z,47.81
2019-06-02T04:33:42.509Z,47.81
2019-06-02T04:34:16.236Z,47.81
2019-06-02T04:34:51.419Z,48.01
2019-06-02T04:35:23.503Z,47.81
2019-06-02T04:35:55.629Z,47.91
2019-06-02T04:36:27.686Z,47.91
2019-06-02T04:36:59.810Z,47.91
2019-06-02T04:37:31.932Z,47.91
2019-06-02T04:38:04.059Z,47.91
2019-06-02T04:38:36.217Z,47.91
2019-06-02T04:39:08.299Z,47.91
2019-06-02T04:39:43.136Z,47.91
2019-06-02T04:40:21.539Z,47.91
2019-06-02T04:40:54.304Z,47.91
2019-06-02T04:41:26.412Z,47.91
2019-06-02T04:41:58.466Z,47.91
2019-06-02T04:42:30.586Z,47.81
2019-06-02T04:43:02.717Z,47.91
2019-06-02T04:43:34.865Z,47.91
2019-06-02T04:44:06.974Z,47.81
2019-06-02T04:44:39.052Z,47.81
2019-06-02T04:45:13.253Z,47.91
2019-06-02T04:45:50.642Z,47.91
2019-06-02T04:46:25.531Z,47.81
2019-06-02T04:46:57.605Z,47.91
2019-06-02T04:47:37.881Z,47.91
2019-06-02T04:48:09.942Z,47.91
2019-06-02T04:48:45.833Z,47.91
2019-06-02T04:49:21.357Z,47.81
2019-06-02T04:49:58.890Z,47.81
2019-06-02T04:50:31.006Z,47.72
2019-06-02T04:51:04.097Z,47.91
2019-06-02T04:51:36.200Z,47.91
2019-06-02T04:52:08.253Z,47.91
2019-06-02T04:52:43.596Z,47.81
2019-06-02T04:53:19.429Z,47.91
2019-06-02T04:53:52.965Z,47.81
2019-06-02T04:54:25.111Z,47.81
2019-06-02T04:54:57.183Z,47.81
2019-06-02T04:55:29.287Z,47.81
2019-06-02T04:56:01.380Z,47.81
2019-06-02T04:56:34.093Z,47.81
2019-06-02T04:57:06.198Z,47.81
2019-06-02T04:57:38.231Z,47.91
2019-06-02T04:58:10.501Z,47.91
2019-06-02T04:58:46.065Z,47.81
2019-06-02T04:59:21.963Z,47.81
2019-06-02T04:59:54.142Z,47.91
2019-06-02T05:00:26.249Z,47.91
2019-06-02T05:00:58.316Z,47.72
2019-06-02T05:01:30.456Z,47.81
2019-06-02T05:02:02.568Z,47.81
2019-06-02T05:02:34.687Z,47.91
2019-06-02T05:03:06.793Z,47.81
2019-06-02T05:03:38.837Z,47.74
2019-06-02T05:04:11.059Z,47.63
2019-06-02T05:04:46.617Z,47.74
2019-06-02T05:05:22.904Z,47.63
2019-06-02T05:05:55.041Z,47.72
2019-06-02T05:06:27.155Z,47.84
2019-06-02T05:06:59.222Z,47.65
2019-06-02T05:07:31.329Z,47.55
2019-06-02T05:08:03.435Z,47.72
2019-06-02T05:08:35.542Z,47.94
2019-06-02T05:09:07.600Z,47.84
2019-06-02T05:09:39.767Z,47.65
2019-06-02T05:10:11.861Z,47.84
2019-06-02T05:10:46.132Z,47.55
2019-06-02T05:11:21.719Z,47.84
2019-06-02T05:11:59.910Z,47.74
2019-06-02T05:12:32.133Z,47.65
2019-06-02T05:13:04.233Z,47.74
2019-06-02T05:13:36.330Z,47.74
2019-06-02T05:14:08.381Z,47.65
2019-06-02T05:14:40.498Z,47.65
2019-06-02T05:15:12.585Z,47.74
2019-06-02T05:15:46.386Z,47.84
2019-06-02T05:16:20.065Z,47.74
2019-06-02T05:16:53.115Z,47.84
2019-06-02T05:18:06.344Z,47.94
2019-06-02T05:18:38.518Z,47.65
2019-06-02T05:19:10.556Z,47.74
2019-06-02T05:19:42.663Z,47.74
2019-06-02T05:20:16.317Z,47.65
2019-06-02T05:20:50.701Z,47.84
2019-06-02T05:21:22.936Z,47.55
2019-06-02T05:21:55.056Z,47.65
2019-06-02T05:22:28.370Z,47.58
2019-06-02T05:23:00.477Z,47.65
2019-06-02T05:23:32.590Z,47.67
2019-06-02T05:24:04.691Z,47.48
2019-06-02T05:24:36.819Z,47.58
2019-06-02T05:25:08.868Z,47.67
2019-06-02T05:25:40.966Z,47.48
2019-06-02T05:26:13.039Z,47.58
2019-06-02T05:26:45.173Z,47.58
2019-06-02T05:27:18.374Z,47.48
2019-06-02T05:27:51.336Z,47.58
2019-06-02T05:28:24.742Z,47.38
2019-06-02T05:28:56.842Z,47.48
2019-06-02T05:29:28.871Z,47.58
2019-06-02T05:30:00.983Z,47.67
2019-06-02T05:30:33.095Z,47.58
2019-06-02T05:31:05.201Z,47.58
2019-06-02T05:31:37.248Z,47.48
2019-06-02T05:32:09.337Z,47.38
2019-06-02T05:32:41.447Z,47.48
2019-06-02T05:33:13.633Z,47.48
2019-06-02T05:33:45.887Z,47.58
2019-06-02T05:34:19.061Z,47.58
2019-06-02T05:34:51.167Z,47.67
2019-06-02T05:35:24.496Z,47.5
2019-06-02T05:35:56.737Z,47.31
2019-06-02T05:36:28.790Z,47.6
2019-06-02T05:37:00.947Z,47.41
2019-06-02T05:37:33.060Z,47.5
2019-06-02T05:38:05.160Z,47.31
2019-06-02T05:38:37.278Z,47.31
2019-06-02T05:39:09.392Z,47.41
2019-06-02T05:39:41.517Z,47.5
2019-06-02T05:40:13.666Z,47.6
2019-06-02T05:40:47.029Z,47.31
2019-06-02T05:41:20.403Z,47.31
2019-06-02T05:41:53.586Z,47.31
2019-06-02T05:42:25.790Z,47.21
2019-06-02T05:42:57.831Z,47.31
2019-06-02T05:43:29.918Z,47.31
2019-06-02T05:44:01.808Z,47.21
2019-06-02T05:44:33.926Z,47.5
2019-06-02T05:45:06.041Z,47.41
2019-06-02T05:45:38.080Z,47.41
2019-06-02T05:46:10.174Z,47.24
2019-06-02T05:46:42.276Z,47.52
2019-06-02T05:47:14.378Z,47.21
2019-06-02T05:47:46.477Z,47.33
2019-06-02T05:48:19.763Z,47.24
2019-06-02T05:48:52.733Z,47.24
2019-06-02T05:49:26.073Z,47.33
2019-06-02T05:49:58.145Z,47.33
2019-06-02T05:50:30.260Z,47.33
2019-06-02T05:51:02.448Z,47.14
2019-06-02T05:51:34.582Z,47.24
2019-06-02T05:52:06.700Z,47.24
2019-06-02T05:52:38.750Z,47.24
2019-06-02T05:53:10.861Z,47.14
2019-06-02T05:53:42.965Z,47.24
2019-06-02T05:54:15.077Z,47.24
2019-06-02T05:54:47.216Z,47.04
2019-06-02T05:55:20.382Z,47.24
2019-06-02T05:55:53.363Z,47.14
2019-06-02T05:56:30.038Z,47.24
2019-06-02T05:57:02.143Z,47.24
2019-06-02T05:57:34.302Z,47.14
2019-06-02T05:58:06.426Z,47.24
2019-06-02T05:58:38.484Z,47.24
2019-06-02T05:59:10.585Z,47.36
2019-06-02T05:59:42.684Z,47.06
2019-06-02T06:00:15.517Z,47.45
2019-06-02T06:00:49.892Z,46.87
2019-06-02T06:01:23.888Z,47.33
2019-06-02T06:01:57.825Z,46.87
2019-06-02T06:02:29.967Z,46.87
2019-06-02T06:03:03.971Z,47.06
2019-06-02T06:03:36.072Z,46.97
2019-06-02T06:04:08.116Z,46.97
2019-06-02T06:04:40.242Z,46.87
2019-06-02T06:05:12.336Z,47.06
2019-06-02T06:05:44.434Z,47.16
2019-06-02T06:06:16.535Z,46.77
2019-06-02T06:06:48.669Z,47.06
2019-06-02T06:07:22.077Z,47.06
2019-06-02T06:07:55.032Z,46.87
2019-06-02T06:08:28.359Z,46.77
2019-06-02T06:09:00.511Z,46.97
2019-06-02T06:09:32.620Z,46.77
2019-06-02T06:10:08.107Z,46.87
2019-06-02T06:10:40.889Z,46.87
2019-06-02T06:11:12.983Z,46.77
2019-06-02T06:11:45.082Z,46.77
2019-06-02T06:12:17.144Z,46.87
2019-06-02T06:12:49.360Z,46.77
2019-06-02T06:13:22.656Z,46.87
2019-06-02T06:13:57.978Z,46.87
2019-06-02T06:14:31.484Z,47.06
2019-06-02T06:15:03.594Z,46.87
2019-06-02T06:15:35.701Z,46.7
2019-06-02T06:16:07.756Z,47.06
2019-06-02T06:16:39.853Z,46.89
2019-06-02T06:17:11.960Z,46.99
2019-06-02T06:17:44.079Z,46.89
2019-06-02T06:18:31.108Z,46.99
2019-06-02T06:19:03.459Z,46.8
2019-06-02T06:19:35.572Z,46.89
2019-06-02T06:20:07.619Z,46.8
2019-06-02T06:20:39.714Z,46.99
2019-06-02T06:21:11.821Z,46.89
2019-06-02T06:21:43.925Z,46.51
2019-06-02T06:22:16.029Z,46.99
2019-06-02T06:22:48.074Z,47.09
2019-06-02T06:23:20.174Z,46.6
2019-06-02T06:23:54.575Z,46.8
2019-06-02T06:24:26.762Z,46.82
2019-06-02T06:24:58.962Z,46.99
2019-06-02T06:25:32.660Z,46.89
2019-06-02T06:26:05.059Z,46.99
2019-06-02T06:26:37.170Z,46.8
2019-06-02T06:27:09.271Z,46.53
2019-06-02T06:27:41.395Z,46.7
2019-06-02T06:28:13.516Z,46.82
2019-06-02T06:28:45.612Z,46.82
2019-06-02T06:29:17.659Z,46.82
2019-06-02T06:29:50.820Z,46.53
2019-06-02T06:30:23.000Z,46.72
2019-06-02T06:30:55.744Z,46.82
2019-06-02T06:31:31.822Z,46.62
2019-06-02T06:32:03.943Z,46.62
2019-06-02T06:32:36.057Z,46.53
2019-06-02T06:33:08.112Z,46.72
2019-06-02T06:33:40.218Z,46.43
2019-06-02T06:34:12.343Z,46.62
2019-06-02T06:34:44.496Z,46.62
2019-06-02T06:35:16.623Z,46.62
2019-06-02T06:35:48.708Z,46.53
2019-06-02T06:36:20.818Z,46.62
2019-06-02T06:36:54.241Z,46.53
2019-06-02T06:37:28.781Z,46.43
2019-06-02T06:38:02.119Z,46.53
2019-06-02T06:38:34.319Z,46.24
2019-06-02T06:39:27.346Z,46.14
2019-06-02T06:40:00.662Z,46.53
2019-06-02T06:40:34.249Z,46.72
2019-06-02T06:41:06.350Z,46.82
2019-06-02T06:41:38.474Z,46.33
2019-06-02T06:42:10.613Z,46.33
2019-06-02T06:42:42.713Z,46.53
2019-06-02T06:43:14.850Z,46.26
2019-06-02T06:43:46.960Z,46.45
2019-06-02T06:44:19.056Z,46.75
2019-06-02T06:44:52.588Z,46.65
2019-06-02T06:45:26.297Z,46.94
2019-06-02T06:45:59.309Z,46.75
2019-06-02T06:46:32.643Z,46.84
2019-06-02T06:47:05.896Z,46.65
2019-06-02T06:47:38.303Z,46.75
2019-06-02T06:48:10.500Z,46.65
2019-06-02T06:48:51.355Z,46.36
2019-06-02T06:49:23.444Z,46.75
2019-06-02T06:49:59.859Z,46.65
2019-06-02T06:50:37.594Z,46.65
2019-06-02T06:51:09.695Z,46.45
2019-06-02T06:51:41.796Z,46.65
2019-06-02T06:52:13.933Z,46.65
2019-06-02T06:52:46.057Z,46.45
2019-06-02T06:53:18.107Z,46.45
2019-06-02T06:53:50.201Z,46.58
2019-06-02T06:54:22.426Z,46.55
2019-06-02T06:54:56.394Z,46.55
2019-06-02T06:55:29.835Z,46.58
2019-06-02T06:56:03.378Z,46.58
2019-06-02T06:56:35.503Z,46.58
2019-06-02T06:57:07.584Z,46.67
2019-06-02T06:57:39.688Z,46.67
2019-06-02T06:58:12.062Z,46.48
2019-06-02T06:58:44.341Z,46.77
2019-06-02T06:59:16.437Z,46.67
2019-06-02T06:59:48.561Z,46.38
2019-06-02T07:00:20.649Z,46.67
2019-06-02T07:00:52.766Z,46.77
2019-06-02T07:01:24.885Z,45.99
2019-06-02T07:01:58.063Z,46.28
2019-06-02T07:02:31.248Z,46.28
2019-06-02T07:03:05.245Z,46.19
2019-06-02T07:03:37.543Z,46.21
2019-06-02T07:04:09.666Z,46.21
2019-06-02T07:04:41.770Z,46.21
2019-06-02T07:05:17.368Z,46.11
2019-06-02T07:05:49.411Z,45.92
2019-06-02T07:06:21.510Z,46.11
2019-06-02T07:06:53.617Z,46.11